sensor_id;sensor_type;location;lat;lon;timestamp;pressure;altitude;pressure_sealevel;temperature;humidity
28312;BME280;15572;48.810;9.148;2023-04-07T00:01:46;98128.75;;;6.59;100.00
28312;BME280;15572;48.810;9.148;2023-04-07T00:06:42;98128.25;;;6.55;100.00
28312;BME280;15572;48.810;9.148;2023-04-07T00:11:39;98120.84;;;6.57;100.00
28312;BME280;15572;48.810;9.148;2023-04-07T00:16:37;98114.97;;;6.62;100.00
28312;BME280;15572;48.810;9.148;2023-04-07T00:21:33;98109.91;;;6.59;100.00
28312;BME280;15572;48.810;9.148;2023-04-07T00:26:30;98103.38;;;6.61;100.00
28312;BME280;15572;48.810;9.148;2023-04-07T00:31:27;98097.97;;;6.61;100.00
28312;BME280;15572;48.810;9.148;2023-04-07T00:36:25;98097.47;;;6.66;100.00
28312;BME280;15572;48.810;9.148;2023-04-07T00:41:22;98089.22;;;6.67;100.00
28312;BME280;15572;48.810;9.148;2023-04-07T00:46:21;98084.03;;;6.58;100.00
28312;BME280;15572;48.810;9.148;2023-04-07T00:51:19;98084.88;;;6.58;100.00
28312;BME280;15572;48.810;9.148;2023-04-07T00:56:17;98067.88;;;6.58;100.00
28312;BME280;15572;48.810;9.148;2023-04-07T01:01:17;98063.53;;;6.57;100.00
28312;BME280;15572;48.810;9.148;2023-04-07T01:06:16;98057.81;;;6.52;100.00
28312;BME280;15572;48.810;9.148;2023-04-07T01:11:21;98046.72;;;6.55;100.00
28312;BME280;15572;48.810;9.148;2023-04-07T01:16:23;98049.91;;;6.58;100.00
28312;BME280;15572;48.810;9.148;2023-04-07T01:21:21;98043.56;;;6.51;100.00
28312;BME280;15572;48.810;9.148;2023-04-07T01:26:25;98029.06;;;6.52;100.00
28312;BME280;15572;48.810;9.148;2023-04-07T01:31:25;98035.19;;;6.46;100.00
28312;BME280;15572;48.810;9.148;2023-04-07T01:36:22;98037.88;;;6.46;100.00
28312;BME280;15572;48.810;9.148;2023-04-07T01:41:20;98032.50;;;6.46;100.00
28312;BME280;15572;48.810;9.148;2023-04-07T01:46:17;98034.81;;;6.49;100.00
28312;BME280;15572;48.810;9.148;2023-04-07T01:51:15;98019.03;;;6.46;100.00
28312;BME280;15572;48.810;9.148;2023-04-07T01:56:13;98017.69;;;6.42;100.00
28312;BME280;15572;48.810;9.148;2023-04-07T02:01:09;98010.97;;;6.46;100.00
28312;BME280;15572;48.810;9.148;2023-04-07T02:06:07;98000.69;;;6.50;100.00
28312;BME280;15572;48.810;9.148;2023-04-07T02:11:07;98006.06;;;6.50;100.00
28312;BME280;15572;48.810;9.148;2023-04-07T02:16:05;97997.84;;;6.51;100.00
28312;BME280;15572;48.810;9.148;2023-04-07T02:21:03;97990.56;;;6.52;100.00
28312;BME280;15572;48.810;9.148;2023-04-07T02:26:01;98000.03;;;6.48;100.00
28312;BME280;15572;48.810;9.148;2023-04-07T02:30:58;97999.84;;;6.49;100.00
28312;BME280;15572;48.810;9.148;2023-04-07T02:35:55;97989.09;;;6.49;100.00
28312;BME280;15572;48.810;9.148;2023-04-07T02:40:51;97977.63;;;6.55;100.00
28312;BME280;15572;48.810;9.148;2023-04-07T02:45:48;97984.34;;;6.59;100.00
28312;BME280;15572;48.810;9.148;2023-04-07T02:50:46;97974.78;;;6.57;100.00
28312;BME280;15572;48.810;9.148;2023-04-07T02:55:42;97978.13;;;6.59;100.00
28312;BME280;15572;48.810;9.148;2023-04-07T03:00:39;97972.56;;;6.60;100.00
28312;BME280;15572;48.810;9.148;2023-04-07T03:05:35;97965.97;;;6.63;100.00
28312;BME280;15572;48.810;9.148;2023-04-07T03:10:33;97966.66;;;6.65;100.00
28312;BME280;15572;48.810;9.148;2023-04-07T03:15:30;97958.56;;;6.65;100.00
28312;BME280;15572;48.810;9.148;2023-04-07T03:20:26;97962.41;;;6.70;100.00
28312;BME280;15572;48.810;9.148;2023-04-07T03:25:24;97956.06;;;6.63;100.00
28312;BME280;15572;48.810;9.148;2023-04-07T03:30:24;97950.88;;;6.62;100.00
28312;BME280;15572;48.810;9.148;2023-04-07T03:35:21;97952.03;;;6.67;100.00
28312;BME280;15572;48.810;9.148;2023-04-07T03:40:20;97943.75;;;6.69;100.00
28312;BME280;15572;48.810;9.148;2023-04-07T03:45:17;97938.56;;;6.67;100.00
28312;BME280;15572;48.810;9.148;2023-04-07T03:50:15;97940.22;;;6.68;100.00
28312;BME280;15572;48.810;9.148;2023-04-07T03:55:16;97940.34;;;6.75;100.00
28312;BME280;15572;48.810;9.148;2023-04-07T04:00:13;97932.28;;;6.75;100.00
28312;BME280;15572;48.810;9.148;2023-04-07T04:05:10;97936.28;;;6.79;100.00
28312;BME280;15572;48.810;9.148;2023-04-07T04:10:08;97926.00;;;6.83;100.00
28312;BME280;15572;48.810;9.148;2023-04-07T04:15:05;97933.78;;;6.78;100.00
28312;BME280;15572;48.810;9.148;2023-04-07T04:20:02;97928.41;;;6.78;100.00
28312;BME280;15572;48.810;9.148;2023-04-07T04:24:59;97924.88;;;6.77;100.00
28312;BME280;15572;48.810;9.148;2023-04-07T04:29:57;97917.06;;;6.67;100.00
28312;BME280;15572;48.810;9.148;2023-04-07T04:34:53;97929.00;;;6.65;100.00
28312;BME280;15572;48.810;9.148;2023-04-07T04:39:50;97918.22;;;6.65;100.00
28312;BME280;15572;48.810;9.148;2023-04-07T04:44:46;97926.13;;;6.66;100.00
28312;BME280;15572;48.810;9.148;2023-04-07T04:49:44;97921.59;;;6.67;100.00
28312;BME280;15572;48.810;9.148;2023-04-07T04:54:41;97928.31;;;6.63;100.00
28312;BME280;15572;48.810;9.148;2023-04-07T04:59:37;97926.66;;;6.62;100.00
28312;BME280;15572;48.810;9.148;2023-04-07T05:04:45;97928.31;;;6.63;100.00
28312;BME280;15572;48.810;9.148;2023-04-07T05:09:49;97932.34;;;6.67;100.00
28312;BME280;15572;48.810;9.148;2023-04-07T05:14:52;97937.53;;;6.68;100.00
28312;BME280;15572;48.810;9.148;2023-04-07T05:19:52;97922.22;;;6.69;100.00
28312;BME280;15572;48.810;9.148;2023-04-07T05:25:00;97925.94;;;6.68;100.00
28312;BME280;15572;48.810;9.148;2023-04-07T05:29:59;97930.50;;;6.67;100.00
28312;BME280;15572;48.810;9.148;2023-04-07T05:35:01;97938.19;;;6.70;100.00
28312;BME280;15572;48.810;9.148;2023-04-07T05:40:02;97935.81;;;6.75;100.00
28312;BME280;15572;48.810;9.148;2023-04-07T05:44:58;97934.38;;;6.88;100.00
28312;BME280;15572;48.810;9.148;2023-04-07T05:49:55;97930.19;;;6.85;100.00
28312;BME280;15572;48.810;9.148;2023-04-07T05:54:51;97931.81;;;6.94;100.00
28312;BME280;15572;48.810;9.148;2023-04-07T05:59:49;97936.41;;;7.08;100.00
28312;BME280;15572;48.810;9.148;2023-04-07T06:04:46;97938.81;;;7.03;100.00
28312;BME280;15572;48.810;9.148;2023-04-07T06:09:42;97941.13;;;7.06;100.00
28312;BME280;15572;48.810;9.148;2023-04-07T06:14:38;97923.06;;;7.15;100.00
28312;BME280;15572;48.810;9.148;2023-04-07T06:19:36;97939.09;;;7.31;100.00
28312;BME280;15572;48.810;9.148;2023-04-07T06:24:33;97942.41;;;7.33;100.00
28312;BME280;15572;48.810;9.148;2023-04-07T06:29:29;97942.25;;;7.49;100.00
28312;BME280;15572;48.810;9.148;2023-04-07T06:34:27;97946.38;;;7.60;100.00
28312;BME280;15572;48.810;9.148;2023-04-07T06:39:26;97946.94;;;7.70;100.00
28312;BME280;15572;48.810;9.148;2023-04-07T06:44:22;97941.38;;;7.72;100.00
28312;BME280;15572;48.810;9.148;2023-04-07T06:49:19;97939.34;;;7.74;100.00
28312;BME280;15572;48.810;9.148;2023-04-07T06:54:15;97942.03;;;7.74;100.00
28312;BME280;15572;48.810;9.148;2023-04-07T06:59:13;97942.03;;;7.74;100.00
28312;BME280;15572;48.810;9.148;2023-04-07T07:04:10;97932.63;;;7.70;100.00
28312;BME280;15572;48.810;9.148;2023-04-07T07:09:06;97939.06;;;7.69;100.00
28312;BME280;15572;48.810;9.148;2023-04-07T07:14:03;97938.38;;;7.67;100.00
28312;BME280;15572;48.810;9.148;2023-04-07T07:19:00;97938.78;;;7.64;100.00
28312;BME280;15572;48.810;9.148;2023-04-07T07:23:57;97937.38;;;7.68;100.00
28312;BME280;15572;48.810;9.148;2023-04-07T07:28:53;97935.03;;;7.65;100.00
28312;BME280;15572;48.810;9.148;2023-04-07T07:33:50;97944.78;;;7.66;100.00
28312;BME280;15572;48.810;9.148;2023-04-07T07:38:49;97942.38;;;7.71;100.00
28312;BME280;15572;48.810;9.148;2023-04-07T07:43:46;97947.41;;;7.74;100.00
28312;BME280;15572;48.810;9.148;2023-04-07T07:48:42;97949.72;;;7.77;100.00
28312;BME280;15572;48.810;9.148;2023-04-07T07:53:40;97953.00;;;7.87;100.00
28312;BME280;15572;48.810;9.148;2023-04-07T07:58:38;97947.31;;;7.96;100.00
28312;BME280;15572;48.810;9.148;2023-04-07T08:03:34;97949.66;;;8.14;100.00
28312;BME280;15572;48.810;9.148;2023-04-07T08:08:31;97950.09;;;8.47;100.00
28312;BME280;15572;48.810;9.148;2023-04-07T08:13:27;97955.06;;;8.79;100.00
28312;BME280;15572;48.810;9.148;2023-04-07T08:18:25;97958.28;;;9.11;98.32
28312;BME280;15572;48.810;9.148;2023-04-07T08:23:22;97956.34;;;9.26;98.57
28312;BME280;15572;48.810;9.148;2023-04-07T08:28:18;97966.09;;;9.48;97.73
28312;BME280;15572;48.810;9.148;2023-04-07T08:33:15;97957.38;;;9.74;96.20
28312;BME280;15572;48.810;9.148;2023-04-07T08:38:13;97962.41;;;10.11;94.03
28312;BME280;15572;48.810;9.148;2023-04-07T08:43:11;97955.56;;;10.50;90.78
28312;BME280;15572;48.810;9.148;2023-04-07T08:48:15;97967.09;;;10.72;88.86
28312;BME280;15572;48.810;9.148;2023-04-07T08:53:17;97958.06;;;10.58;87.06
28312;BME280;15572;48.810;9.148;2023-04-07T08:58:14;97960.28;;;10.35;86.91
28312;BME280;15572;48.810;9.148;2023-04-07T09:03:11;97959.03;;;10.03;86.71
28312;BME280;15572;48.810;9.148;2023-04-07T09:08:08;97964.06;;;10.12;87.18
28312;BME280;15572;48.810;9.148;2023-04-07T09:13:06;97965.50;;;10.36;86.29
28312;BME280;15572;48.810;9.148;2023-04-07T09:18:03;97964.41;;;10.72;85.04
28312;BME280;15572;48.810;9.148;2023-04-07T09:22:59;97971.59;;;11.19;84.57
28312;BME280;15572;48.810;9.148;2023-04-07T09:27:57;97968.50;;;11.55;82.87
28312;BME280;15572;48.810;9.148;2023-04-07T09:32:56;97968.75;;;11.93;79.21
28312;BME280;15572;48.810;9.148;2023-04-07T09:38:04;97962.03;;;12.08;74.41
28312;BME280;15572;48.810;9.148;2023-04-07T09:43:02;97964.53;;;12.23;76.89
28312;BME280;15572;48.810;9.148;2023-04-07T09:48:04;97968.94;;;11.98;75.99
28312;BME280;15572;48.810;9.148;2023-04-07T09:53:00;97959.53;;;11.28;74.87
28312;BME280;15572;48.810;9.148;2023-04-07T09:57:58;97967.47;;;11.49;77.62
28312;BME280;15572;48.810;9.148;2023-04-07T10:02:55;97958.28;;;11.30;76.43
28312;BME280;15572;48.810;9.148;2023-04-07T10:07:58;97975.34;;;11.18;76.08
28312;BME280;15572;48.810;9.148;2023-04-07T10:12:56;97971.59;;;11.06;76.82
28312;BME280;15572;48.810;9.148;2023-04-07T10:17:53;97966.22;;;11.32;77.40
28312;BME280;15572;48.810;9.148;2023-04-07T10:22:52;97964.97;;;11.54;77.69
28312;BME280;15572;48.810;9.148;2023-04-07T10:27:55;97962.91;;;11.96;77.19
28312;BME280;15572;48.810;9.148;2023-04-07T10:32:54;97961.97;;;12.41;74.61
28312;BME280;15572;48.810;9.148;2023-04-07T10:38:10;97957.34;;;12.55;74.05
28312;BME280;15572;48.810;9.148;2023-04-07T10:43:10;97952.31;;;12.58;73.94
28312;BME280;15572;48.810;9.148;2023-04-07T10:48:09;97963.16;;;12.58;74.09
28312;BME280;15572;48.810;9.148;2023-04-07T10:53:07;97955.88;;;12.52;74.35
28312;BME280;15572;48.810;9.148;2023-04-07T10:58:19;97964.72;;;12.21;74.88
28312;BME280;15572;48.810;9.148;2023-04-07T11:03:16;97961.88;;;11.90;75.22
28312;BME280;15572;48.810;9.148;2023-04-07T11:08:13;97965.03;;;11.80;76.55
28312;BME280;15572;48.810;9.148;2023-04-07T11:13:09;97969.75;;;11.72;77.24
28312;BME280;15572;48.810;9.148;2023-04-07T11:18:12;97967.47;;;11.56;77.98
28312;BME280;15572;48.810;9.148;2023-04-07T11:23:09;97971.63;;;11.32;82.83
28312;BME280;15572;48.810;9.148;2023-04-07T11:28:08;97970.13;;;11.23;84.37
28312;BME280;15572;48.810;9.148;2023-04-07T11:33:07;97973.22;;;11.07;85.67
28312;BME280;15572;48.810;9.148;2023-04-07T11:38:04;97985.94;;;11.00;86.97
28312;BME280;15572;48.810;9.148;2023-04-07T11:43:00;97984.81;;;10.81;93.45
28312;BME280;15572;48.810;9.148;2023-04-07T11:47:57;98002.22;;;10.52;91.93
28312;BME280;15572;48.810;9.148;2023-04-07T11:52:55;98012.06;;;10.32;93.46
28312;BME280;15572;48.810;9.148;2023-04-07T11:57:51;98024.66;;;9.90;100.00
28312;BME280;15572;48.810;9.148;2023-04-07T12:02:48;98026.50;;;9.62;100.00
28312;BME280;15572;48.810;9.148;2023-04-07T12:07:51;98030.13;;;9.26;100.00
28312;BME280;15572;48.810;9.148;2023-04-07T12:12:49;98020.00;;;8.78;100.00
28312;BME280;15572;48.810;9.148;2023-04-07T12:17:47;98023.78;;;8.48;100.00
28312;BME280;15572;48.810;9.148;2023-04-07T12:22:44;98028.88;;;8.57;100.00
28312;BME280;15572;48.810;9.148;2023-04-07T12:27:40;98019.47;;;8.68;100.00
28312;BME280;15572;48.810;9.148;2023-04-07T12:32:38;98023.72;;;8.77;100.00
28312;BME280;15572;48.810;9.148;2023-04-07T12:37:35;98029.13;;;8.77;100.00
28312;BME280;15572;48.810;9.148;2023-04-07T12:42:31;98022.53;;;8.79;100.00
28312;BME280;15572;48.810;9.148;2023-04-07T12:47:28;98013.09;;;8.90;100.00
28312;BME280;15572;48.810;9.148;2023-04-07T12:52:26;98014.22;;;8.96;100.00
28312;BME280;15572;48.810;9.148;2023-04-07T12:57:23;98015.88;;;8.97;100.00
28312;BME280;15572;48.810;9.148;2023-04-07T13:02:32;98009.44;;;9.19;100.00
28312;BME280;15572;48.810;9.148;2023-04-07T13:07:38;98005.16;;;9.24;100.00
28312;BME280;15572;48.810;9.148;2023-04-07T13:12:38;98011.47;;;9.32;100.00
28312;BME280;15572;48.810;9.148;2023-04-07T13:17:38;98021.91;;;9.35;100.00
28312;BME280;15572;48.810;9.148;2023-04-07T13:22:44;98017.78;;;9.39;100.00
28312;BME280;15572;48.810;9.148;2023-04-07T13:27:41;98025.81;;;9.32;100.00
28312;BME280;15572;48.810;9.148;2023-04-07T13:32:38;98022.41;;;9.23;100.00
28312;BME280;15572;48.810;9.148;2023-04-07T13:37:34;98022.19;;;9.25;100.00
28312;BME280;15572;48.810;9.148;2023-04-07T13:42:32;98006.47;;;9.28;100.00
28312;BME280;15572;48.810;9.148;2023-04-07T13:47:29;98005.16;;;9.24;100.00
28312;BME280;15572;48.810;9.148;2023-04-07T13:52:29;98007.75;;;9.33;100.00
28312;BME280;15572;48.810;9.148;2023-04-07T13:57:27;98003.34;;;9.32;100.00
28312;BME280;15572;48.810;9.148;2023-04-07T14:02:25;98009.34;;;9.48;100.00
28312;BME280;15572;48.810;9.148;2023-04-07T14:07:23;98005.47;;;9.57;100.00
28312;BME280;15572;48.810;9.148;2023-04-07T14:12:20;98010.53;;;9.67;100.00
28312;BME280;15572;48.810;9.148;2023-04-07T14:17:17;97999.94;;;9.65;100.00
28312;BME280;15572;48.810;9.148;2023-04-07T14:22:15;98010.66;;;9.80;100.00
28312;BME280;15572;48.810;9.148;2023-04-07T14:27:15;98005.94;;;9.89;100.00
28312;BME280;15572;48.810;9.148;2023-04-07T14:32:15;98008.09;;;10.00;100.00
28312;BME280;15572;48.810;9.148;2023-04-07T14:37:11;98005.88;;;10.10;100.00
28312;BME280;15572;48.810;9.148;2023-04-07T14:42:11;98011.16;;;10.18;100.00
28312;BME280;15572;48.810;9.148;2023-04-07T14:47:08;98010.38;;;10.24;100.00
28312;BME280;15572;48.810;9.148;2023-04-07T14:52:07;98016.25;;;10.34;100.00
28312;BME280;15572;48.810;9.148;2023-04-07T14:57:07;98004.00;;;10.38;100.00
28312;BME280;15572;48.810;9.148;2023-04-07T15:02:09;98005.81;;;10.66;100.00
28312;BME280;15572;48.810;9.148;2023-04-07T15:07:07;98015.06;;;10.84;100.00
28312;BME280;15572;48.810;9.148;2023-04-07T15:12:04;98016.84;;;11.25;100.00
28312;BME280;15572;48.810;9.148;2023-04-07T15:17:01;98015.88;;;11.72;100.00
28312;BME280;15572;48.810;9.148;2023-04-07T15:21:59;98021.13;;;11.80;100.00
28312;BME280;15572;48.810;9.148;2023-04-07T15:26:56;98019.44;;;11.99;100.00
28312;BME280;15572;48.810;9.148;2023-04-07T15:31:52;98017.78;;;12.11;95.70
28312;BME280;15572;48.810;9.148;2023-04-07T15:36:49;98024.00;;;12.38;94.37
28312;BME280;15572;48.810;9.148;2023-04-07T15:41:47;98023.56;;;12.98;88.28
28312;BME280;15572;48.810;9.148;2023-04-07T15:46:43;98032.91;;;12.64;85.23
28312;BME280;15572;48.810;9.148;2023-04-07T15:51:48;98027.59;;;12.89;83.21
28312;BME280;15572;48.810;9.148;2023-04-07T15:56:46;98035.06;;;13.00;82.65
28312;BME280;15572;48.810;9.148;2023-04-07T16:01:43;98046.25;;;12.73;78.61
28312;BME280;15572;48.810;9.148;2023-04-07T16:06:39;98048.03;;;12.21;82.80
28312;BME280;15572;48.810;9.148;2023-04-07T16:11:36;98046.13;;;12.35;83.66
28312;BME280;15572;48.810;9.148;2023-04-07T16:16:34;98046.59;;;12.12;84.00
28312;BME280;15572;48.810;9.148;2023-04-07T16:21:31;98051.56;;;11.75;91.27
28312;BME280;15572;48.810;9.148;2023-04-07T16:26:27;98051.91;;;11.46;90.19
28312;BME280;15572;48.810;9.148;2023-04-07T16:31:24;98059.38;;;11.31;90.97
28312;BME280;15572;48.810;9.148;2023-04-07T16:36:21;98057.50;;;11.25;93.46
28312;BME280;15572;48.810;9.148;2023-04-07T16:41:18;98056.19;;;11.08;95.73
28312;BME280;15572;48.810;9.148;2023-04-07T16:46:15;98062.00;;;11.05;96.47
28312;BME280;15572;48.810;9.148;2023-04-07T16:51:15;98072.84;;;11.05;99.03
28312;BME280;15572;48.810;9.148;2023-04-07T16:56:15;98078.22;;;10.98;99.80
28312;BME280;15572;48.810;9.148;2023-04-07T17:01:12;98074.88;;;10.96;100.00
28312;BME280;15572;48.810;9.148;2023-04-07T17:06:08;98079.88;;;10.92;100.00
28312;BME280;15572;48.810;9.148;2023-04-07T17:11:05;98087.56;;;10.89;100.00
28312;BME280;15572;48.810;9.148;2023-04-07T17:16:03;98094.41;;;10.78;100.00
28312;BME280;15572;48.810;9.148;2023-04-07T17:21:00;98102.59;;;10.57;100.00
28312;BME280;15572;48.810;9.148;2023-04-07T17:25:57;98112.66;;;10.35;100.00
28312;BME280;15572;48.810;9.148;2023-04-07T17:30:53;98115.25;;;10.22;100.00
28312;BME280;15572;48.810;9.148;2023-04-07T17:35:51;98125.28;;;10.07;100.00
28312;BME280;15572;48.810;9.148;2023-04-07T17:40:47;98137.88;;;9.93;100.00
28312;BME280;15572;48.810;9.148;2023-04-07T17:45:44;98137.06;;;9.78;100.00
28312;BME280;15572;48.810;9.148;2023-04-07T17:50:41;98144.03;;;9.66;100.00
28312;BME280;15572;48.810;9.148;2023-04-07T17:55:38;98155.34;;;9.55;100.00
28312;BME280;15572;48.810;9.148;2023-04-07T18:00:35;98167.84;;;9.56;100.00
28312;BME280;15572;48.810;9.148;2023-04-07T18:05:32;98165.97;;;9.42;100.00
28312;BME280;15572;48.810;9.148;2023-04-07T18:10:28;98173.81;;;9.37;100.00
28312;BME280;15572;48.810;9.148;2023-04-07T18:15:26;98181.97;;;9.22;100.00
28312;BME280;15572;48.810;9.148;2023-04-07T18:20:23;98186.25;;;9.16;100.00
28312;BME280;15572;48.810;9.148;2023-04-07T18:25:20;98191.25;;;9.19;100.00
28312;BME280;15572;48.810;9.148;2023-04-07T18:30:17;98200.50;;;9.10;100.00
28312;BME280;15572;48.810;9.148;2023-04-07T18:35:15;98208.22;;;8.99;100.00
28312;BME280;15572;48.810;9.148;2023-04-07T18:40:13;98211.66;;;8.78;100.00
28312;BME280;15572;48.810;9.148;2023-04-07T18:45:10;98219.84;;;8.70;100.00
28312;BME280;15572;48.810;9.148;2023-04-07T18:50:07;98225.69;;;8.59;100.00
28312;BME280;15572;48.810;9.148;2023-04-07T18:55:06;98242.22;;;8.56;100.00
28312;BME280;15572;48.810;9.148;2023-04-07T19:00:06;98251.66;;;8.60;100.00
28312;BME280;15572;48.810;9.148;2023-04-07T19:05:03;98252.72;;;8.51;100.00
28312;BME280;15572;48.810;9.148;2023-04-07T19:09:59;98256.66;;;8.48;100.00
28312;BME280;15572;48.810;9.148;2023-04-07T19:14:57;98266.59;;;8.48;100.00
28312;BME280;15572;48.810;9.148;2023-04-07T19:19:54;98261.63;;;8.36;100.00
28312;BME280;15572;48.810;9.148;2023-04-07T19:24:50;98269.44;;;8.31;100.00
28312;BME280;15572;48.810;9.148;2023-04-07T19:29:47;98266.66;;;8.17;100.00
28312;BME280;15572;48.810;9.148;2023-04-07T19:34:46;98260.97;;;8.12;100.00
28312;BME280;15572;48.810;9.148;2023-04-07T19:39:42;98277.03;;;7.97;100.00
28312;BME280;15572;48.810;9.148;2023-04-07T19:44:39;98282.81;;;7.94;100.00
28312;BME280;15572;48.810;9.148;2023-04-07T19:49:35;98286.91;;;7.82;100.00
28312;BME280;15572;48.810;9.148;2023-04-07T19:54:33;98291.44;;;7.81;100.00
28312;BME280;15572;48.810;9.148;2023-04-07T19:59:29;98285.53;;;7.86;100.00
28312;BME280;15572;48.810;9.148;2023-04-07T20:04:26;98298.06;;;7.79;100.00
28312;BME280;15572;48.810;9.148;2023-04-07T20:09:23;98300.75;;;7.79;100.00
28312;BME280;15572;48.810;9.148;2023-04-07T20:14:22;98301.09;;;7.76;100.00
28312;BME280;15572;48.810;9.148;2023-04-07T20:19:19;98309.22;;;7.68;100.00
28312;BME280;15572;48.810;9.148;2023-04-07T20:24:15;98305.47;;;7.77;100.00
28312;BME280;15572;48.810;9.148;2023-04-07T20:29:12;98307.00;;;7.71;100.00
28312;BME280;15572;48.810;9.148;2023-04-07T20:34:10;98317.00;;;7.63;100.00
28312;BME280;15572;48.810;9.148;2023-04-07T20:39:07;98314.16;;;7.56;100.00
28312;BME280;15572;48.810;9.148;2023-04-07T20:44:03;98315.66;;;7.58;100.00
28312;BME280;15572;48.810;9.148;2023-04-07T20:49:00;98319.38;;;7.57;100.00
28312;BME280;15572;48.810;9.148;2023-04-07T20:53:58;98319.22;;;7.51;100.00
28312;BME280;15572;48.810;9.148;2023-04-07T20:58:54;98322.97;;;7.42;100.00
28312;BME280;15572;48.810;9.148;2023-04-07T21:03:51;98320.44;;;7.40;100.00
28312;BME280;15572;48.810;9.148;2023-04-07T21:08:47;98330.72;;;7.37;100.00
28312;BME280;15572;48.810;9.148;2023-04-07T21:13:45;98332.06;;;7.33;100.00
28312;BME280;15572;48.810;9.148;2023-04-07T21:18:42;98329.91;;;7.28;100.00
28312;BME280;15572;48.810;9.148;2023-04-07T21:23:38;98329.56;;;7.23;100.00
28312;BME280;15572;48.810;9.148;2023-04-07T21:28:35;98343.34;;;7.36;100.00
28312;BME280;15572;48.810;9.148;2023-04-07T21:33:33;98342.16;;;7.39;100.00
28312;BME280;15572;48.810;9.148;2023-04-07T21:38:29;98344.72;;;7.24;100.00
28312;BME280;15572;48.810;9.148;2023-04-07T21:43:26;98338.84;;;7.21;100.00
28312;BME280;15572;48.810;9.148;2023-04-07T21:48:23;98333.16;;;7.15;100.00
28312;BME280;15572;48.810;9.148;2023-04-07T21:53:21;98339.19;;;7.17;100.00
28312;BME280;15572;48.810;9.148;2023-04-07T21:58:17;98337.16;;;7.19;100.00
28312;BME280;15572;48.810;9.148;2023-04-07T22:03:14;98336.47;;;7.26;100.00
28312;BME280;15572;48.810;9.148;2023-04-07T22:08:11;98342.19;;;7.31;100.00
28312;BME280;15572;48.810;9.148;2023-04-07T22:13:09;98333.06;;;7.40;100.00
28312;BME280;15572;48.810;9.148;2023-04-07T22:18:05;98343.03;;;7.31;100.00
28312;BME280;15572;48.810;9.148;2023-04-07T22:23:02;98344.19;;;7.29;100.00
28312;BME280;15572;48.810;9.148;2023-04-07T22:27:58;98347.59;;;7.23;100.00
28312;BME280;15572;48.810;9.148;2023-04-07T22:32:56;98348.75;;;7.28;100.00
28312;BME280;15572;48.810;9.148;2023-04-07T22:37:53;98355.66;;;7.31;100.00
28312;BME280;15572;48.810;9.148;2023-04-07T22:42:49;98349.44;;;7.30;100.00
28312;BME280;15572;48.810;9.148;2023-04-07T22:47:46;98354.13;;;7.36;100.00
28312;BME280;15572;48.810;9.148;2023-04-07T22:52:44;98355.66;;;7.31;100.00
28312;BME280;15572;48.810;9.148;2023-04-07T22:57:40;98360.84;;;7.32;100.00
28312;BME280;15572;48.810;9.148;2023-04-07T23:02:37;98357.94;;;7.50;100.00
28312;BME280;15572;48.810;9.148;2023-04-07T23:07:33;98352.75;;;7.40;100.00
28312;BME280;15572;48.810;9.148;2023-04-07T23:12:31;98354.09;;;7.44;100.00
28312;BME280;15572;48.810;9.148;2023-04-07T23:17:27;98356.47;;;7.47;100.00
28312;BME280;15572;48.810;9.148;2023-04-07T23:22:24;98367.91;;;7.33;100.00
28312;BME280;15572;48.810;9.148;2023-04-07T23:27:21;98369.44;;;7.28;100.00
28312;BME280;15572;48.810;9.148;2023-04-07T23:32:19;98371.97;;;7.29;100.00
28312;BME280;15572;48.810;9.148;2023-04-07T23:37:15;98376.69;;;7.35;100.00
28312;BME280;15572;48.810;9.148;2023-04-07T23:42:13;98380.69;;;7.39;100.00
28312;BME280;15572;48.810;9.148;2023-04-07T23:47:10;98381.38;;;7.41;100.00
28312;BME280;15572;48.810;9.148;2023-04-07T23:52:08;98386.56;;;7.43;100.00
28312;BME280;15572;48.810;9.148;2023-04-07T23:57:04;98390.13;;;7.43;100.00
